Grand Forks International Airport
KGFK : now visible

Airfield :











YOU CAN JOIN US ON...

 
LOGIN :

Register | Disclaimer

   EN    FR    IT 

 









Legend :    VFR   Marginal VFR   IFR   Intensive IFR   Very Intensive IFR
Visi :
Ceiling :
>= 8 km
>= 3000ft
5 to 8 km
1000 to 3000 ft
1500m to 5 km
500 to 1000 ft
800 to 1500m
200 to 500 ft
< 800m
< 200 ft
Symbols :   Thunderstorms  Fog  Heavy snow  Heavy precipitations  Wind > 20 kt






- Airport Elevation : 845 ft
- IATA code : GFK


KGFK - Grand Forks International

CURRENT METAR :
  • 301653Z 33015G22KT 10SM BKN035 22/14 A2984 RMK AO2 SLP101 T02220144

EXPIRED METARs :
  • 301553Z 32016G23KT 10SM BKN034 21/14 A2981 RMK AO2 PK WND 30028/1458 SLP092 T02110139
  • 301453Z 31014KT 10SM BKN030 BKN200 21/14 A2979 RMK AO2 PK WND 31028/1400 SLP085 T02110144 53027

TAF KGFK
Valid from the 30 at 12:00 until the 01 at 12:00 UTC


301209Z 3012/0112 29011KT P6SM FEW250
FM301500 32015G23KT P6SM SCT018 BKN250
FM301700 32015G23KT P6SM SCT024 BKN040
FM010000 32011KT P6SM FEW040 SCT180
FM010300 27005KT P6SM FEW250
KZMP FIR / North America



MET'MAP, your aeronautical weather chart ! - Copyright ORBIFLY December 2007 - Disclaimer

ORBIFLY MET'MAP TEAM :

Programming & Development : Alexandra Zaïnal
Original concept : Baudouin d'Aumeries
Technical & hardware support : Manuel Goepfert
Assistance : Marc-Olivier Méhu




SOURCES & CREDITS :

   NOAA       Earth
Advisory